Time;durP1;ratioP1;P1;durP2;ratioP2;P2;SDS_P1;SDS_P2;PMS_P1;PMS_P2;Temp;Humidity;BMP_temperature;BMP_pressure;BME280_temperature;BME280_humidity;BME280_pressure;Samples;Min_cycle;Max_cycle;Signal;HPM_P1;HPM_P2
2021/01/14 00:00:36;;;;;;;7.00;2.80;;;;;;;4.95;48.69;101218.00;4993979;28;20101;-69
2021/01/14 00:03:06;;;;;;;6.85;3.10;;;;;;;4.95;48.65;101213.44;4994440;28;20101;-69
2021/01/14 00:05:34;;;;;;;6.32;2.65;;;;;;;4.94;48.85;101219.81;4991956;28;20046;-70
2021/01/14 00:08:01;;;;;;;6.68;2.45;;;;;;;4.94;48.69;101217.13;4988303;28;20378;-69
2021/01/14 00:10:29;;;;;;;5.40;2.65;;;;;;;4.94;48.63;101222.53;4987357;28;20042;-69
2021/01/14 00:12:56;;;;;;;6.20;2.42;;;;;;;4.95;48.63;101218.00;4989976;28;20038;-69
2021/01/14 00:15:24;;;;;;;4.90;2.58;;;;;;;4.96;48.78;101227.88;4988933;28;20069;-69
2021/01/14 00:17:51;;;;;;;5.82;2.60;;;;;;;4.96;48.54;101234.19;4987757;28;20133;-69
2021/01/14 00:20:20;;;;;;;5.10;2.63;;;;;;;4.96;48.71;101234.19;4990908;28;20046;-70
2021/01/14 00:22:47;;;;;;;5.75;2.65;;;;;;;4.96;48.56;101223.34;4987639;28;20034;-69
2021/01/14 00:25:16;;;;;;;4.05;2.00;;;;;;;4.98;48.44;101242.22;5005044;28;20060;-70
2021/01/14 00:27:44;;;;;;;7.80;2.10;;;;;;;4.95;48.22;101245.97;4990615;28;20957;-70
2021/01/14 00:30:14;;;;;;;4.75;1.67;;;;;;;4.96;47.34;101246.84;4994633;28;20092;-69
2021/01/14 00:32:42;;;;;;;4.55;1.70;;;;;;;4.94;47.40;101252.34;4992120;28;20046;-69
2021/01/14 00:35:10;;;;;;;4.57;1.40;;;;;;;4.93;47.01;101252.47;5006696;28;20559;-69
2021/01/14 00:37:53;;;;;;;4.07;1.10;;;;;;;4.91;46.94;101244.41;4989052;28;20426;-69
2021/01/14 00:40:23;;;;;;;3.55;1.00;;;;;;;4.89;46.36;101246.34;4988119;28;20130;-69
2021/01/14 00:42:57;;;;;;;4.50;1.10;;;;;;;4.89;46.03;101243.63;4986408;28;20042;-68
2021/01/14 00:45:26;;;;;;;3.47;0.90;;;;;;;4.84;46.69;101240.31;4989675;28;20486;-69
2021/01/14 00:47:53;;;;;;;6.03;1.63;;;;;;;4.83;46.36;101241.28;4990653;28;20050;-69
2021/01/14 00:50:21;;;;;;;2.88;0.95;;;;;;;4.82;46.16;101242.22;4988351;28;20043;-69
2021/01/14 00:52:50;;;;;;;3.97;0.93;;;;;;;4.82;46.17;101253.06;4991663;28;20049;-69
2021/01/14 00:55:19;;;;;;;2.00;0.70;;;;;;;4.79;46.14;101251.41;4988701;28;20041;-70
2021/01/14 00:57:47;;;;;;;2.58;0.70;;;;;;;4.79;45.95;101250.50;4988458;28;20040;-69
2021/01/14 01:00:16;;;;;;;3.95;1.10;;;;;;;4.79;45.70;101254.09;4988812;28;20039;-70
2021/01/14 01:02:46;;;;;;;3.65;0.95;;;;;;;4.77;45.10;101256.03;4988436;28;20048;-70
2021/01/14 01:05:15;;;;;;;2.05;0.70;;;;;;;4.77;45.70;101257.88;4988219;28;20065;-70
2021/01/14 01:07:49;;;;;;;3.00;0.80;;;;;;;4.76;44.45;101250.72;4989821;28;20546;-69
2021/01/14 01:10:18;;;;;;;3.95;0.80;;;;;;;4.73;45.81;101254.47;4990124;28;20053;-70
2021/01/14 01:12:50;;;;;;;2.47;0.77;;;;;;;4.75;44.75;101262.50;4989491;28;20379;-70
2021/01/14 01:15:18;;;;;;;3.08;0.88;;;;;;;4.69;45.87;101263.69;5005137;28;20038;-69
2021/01/14 01:17:45;;;;;;;5.97;1.30;;;;;;;4.73;45.57;101262.59;4989847;28;20069;-70
2021/01/14 01:20:13;;;;;;;5.00;1.05;;;;;;;4.71;45.05;101267.22;4988925;28;20121;-70
2021/01/14 01:22:41;;;;;;;3.50;0.80;;;;;;;4.71;45.71;101267.22;4986936;28;20054;-70
2021/01/14 01:25:10;;;;;;;4.63;1.30;;;;;;;4.69;45.13;101269.13;4990866;28;20093;-70
2021/01/14 01:27:38;;;;;;;1.77;0.90;;;;;;;4.71;45.05;101271.75;4989340;28;20039;-70
2021/01/14 01:30:06;;;;;;;2.90;1.00;;;;;;;4.71;45.28;101277.16;4991484;28;20043;-70
2021/01/14 01:32:34;;;;;;;3.60;0.90;;;;;;;4.69;45.15;101274.53;4993133;28;20096;-69
2021/01/14 01:35:01;;;;;;;5.03;0.95;;;;;;;4.67;45.15;101273.78;4989859;28;20445;-69
2021/01/14 01:37:28;;;;;;;3.25;0.82;;;;;;;4.67;45.24;101283.75;4987649;28;20326;-69
2021/01/14 01:39:56;;;;;;;2.92;1.08;;;;;;;4.68;45.22;101280.06;4989320;28;20185;-69
2021/01/14 01:42:24;;;;;;;3.90;0.90;;;;;;;4.67;45.31;101283.75;4988725;28;20395;-69
2021/01/14 01:44:52;;;;;;;3.20;0.90;;;;;;;4.68;45.44;101283.66;4990203;28;20038;-68
2021/01/14 01:47:19;;;;;;;4.47;1.40;;;;;;;4.69;45.40;101282.66;4989946;28;20054;-69
2021/01/14 01:49:47;;;;;;;3.90;0.90;;;;;;;4.69;45.35;101287.22;4985422;28;20046;-69
2021/01/14 01:52:14;;;;;;;2.65;1.00;;;;;;;4.69;45.33;101282.66;4989517;28;20864;-69
2021/01/14 01:54:42;;;;;;;4.28;1.00;;;;;;;4.70;45.08;101288.97;4989513;28;20038;-69
2021/01/14 01:57:10;;;;;;;3.40;1.20;;;;;;;4.69;45.06;101285.38;4989636;28;20046;-69
2021/01/14 01:59:38;;;;;;;3.88;1.33;;;;;;;4.69;44.91;101288.09;4991014;28;20093;-69
2021/01/14 02:02:24;;;;;;;4.68;1.25;;;;;;;4.70;43.99;101287.13;4982241;28;20034;-69
2021/01/14 02:04:53;;;;;;;3.05;1.08;;;;;;;4.68;44.74;101288.19;4991890;28;20042;-69
2021/01/14 02:07:31;;;;;;;4.60;1.20;;;;;;;4.69;44.03;101295.34;4989565;28;20042;-69
2021/01/14 02:10:00;;;;;;;4.30;1.02;;;;;;;4.68;44.94;101299.03;5002835;28;20876;-69
2021/01/14 02:12:33;;;;;;;4.28;1.17;;;;;;;4.68;44.20;101289.06;4990159;28;20066;-69
2021/01/14 02:15:02;;;;;;;3.20;1.02;;;;;;;4.67;44.63;101294.56;4988884;28;20557;-69
2021/01/14 02:17:31;;;;;;;6.28;1.30;;;;;;;4.66;44.66;101288.28;4989559;28;20057;-69
2021/01/14 02:20:02;;;;;;;4.22;1.10;;;;;;;4.64;44.73;101284.78;4988159;28;20039;-69
2021/01/14 02:22:37;;;;;;;3.05;0.90;;;;;;;4.65;44.41;101301.91;4987474;28;20417;-68
2021/01/14 02:25:09;;;;;;;3.08;1.42;;;;;;;4.63;44.29;101296.56;4986331;28;20061;-69
2021/01/14 02:27:39;;;;;;;5.20;1.37;;;;;;;4.61;44.33;101306.59;4986534;28;20481;-69
2021/01/14 02:30:10;;;;;;;4.38;1.10;;;;;;;4.63;44.25;101310.13;4989706;28;20303;-69
2021/01/14 02:32:37;;;;;;;3.70;1.20;;;;;;;4.61;44.61;101314.72;4990640;28;20049;-68
2021/01/14 02:35:05;;;;;;;3.67;1.33;;;;;;;4.61;44.32;101316.56;4985254;28;20041;-69
2021/01/14 02:37:32;;;;;;;3.03;0.98;;;;;;;4.58;44.17;101323.03;4987190;28;20053;-68
2021/01/14 02:40:00;;;;;;;2.78;1.10;;;;;;;4.58;44.22;101324.88;4987141;28;20445;-69
2021/01/14 02:42:27;;;;;;;6.22;1.27;;;;;;;4.56;44.36;101330.38;4987525;28;20053;-69
2021/01/14 02:44:55;;;;;;;3.20;1.00;;;;;;;4.56;44.36;101330.38;5003153;28;20494;-69
2021/01/14 02:47:24;;;;;;;2.05;0.90;;;;;;;4.55;44.21;101331.31;4988666;28;20050;-69
2021/01/14 02:49:58;;;;;;;3.08;0.90;;;;;;;4.57;43.78;101344.81;5003622;28;20106;-69
2021/01/14 02:52:27;;;;;;;4.85;1.10;;;;;;;4.54;44.41;101348.53;4986251;28;20544;-68
2021/01/14 02:54:58;;;;;;;3.63;1.20;;;;;;;4.54;44.05;101355.78;4988351;28;20038;-69
2021/01/14 02:57:27;;;;;;;3.95;0.75;;;;;;;4.54;44.64;101350.38;4985326;28;20057;-69
2021/01/14 02:59:55;;;;;;;4.70;1.40;;;;;;;4.52;44.28;101358.59;4995671;28;20035;-69
2021/01/14 03:02:23;;;;;;;4.68;1.10;;;;;;;4.51;44.36;101362.28;4994869;28;20046;-69
2021/01/14 03:04:50;;;;;;;4.30;1.10;;;;;;;4.50;44.52;101355.09;4993212;28;20048;-68
2021/01/14 03:07:18;;;;;;;2.40;0.90;;;;;;;4.50;44.62;101360.50;4992108;28;20046;-69
2021/01/14 03:09:45;;;;;;;3.53;1.00;;;;;;;4.51;44.45;101372.22;4991791;28;20060;-69
2021/01/14 03:12:12;;;;;;;3.17;1.00;;;;;;;4.51;44.40;101372.22;4989759;28;20034;-69
2021/01/14 03:14:39;;;;;;;2.47;0.93;;;;;;;4.50;44.60;101373.19;4991504;28;20046;-69
2021/01/14 03:17:08;;;;;;;4.30;0.90;;;;;;;4.51;44.14;101361.38;4991053;28;20046;-69
2021/01/14 03:19:35;;;;;;;3.53;1.00;;;;;;;4.49;44.41;101377.72;4987827;28;20405;-69
2021/01/14 03:22:03;;;;;;;4.28;1.05;;;;;;;4.49;44.25;101368.72;4992565;28;20042;-69
2021/01/14 03:24:31;;;;;;;3.42;1.30;;;;;;;4.48;44.39;101375.97;4993899;28;20502;-69
2021/01/14 03:26:58;;;;;;;2.65;1.20;;;;;;;4.49;43.95;101377.72;4991990;28;20042;-69
2021/01/14 03:29:25;;;;;;;3.95;1.00;;;;;;;4.48;44.11;101378.69;4996245;28;20038;-69
2021/01/14 03:31:59;;;;;;;3.63;1.00;;;;;;;4.48;44.23;101389.50;5006004;28;20041;-69
2021/01/14 03:34:27;;;;;;;4.65;1.40;;;;;;;4.48;44.03;101386.81;4992884;28;20038;-69
2021/01/14 03:41:42;;;;;;;3.00;0.90;;;;;;;4.38;43.70;101374.69;4988519;28;20194;-69
2021/01/14 03:44:09;;;;;;;3.47;1.20;;;;;;;4.38;44.20;101380.97;4986490;28;20038;-69
2021/01/14 03:46:36;;;;;;;4.82;1.10;;;;;;;4.39;43.96;101381.88;4990032;28;20050;-69
2021/01/14 03:49:04;;;;;;;3.35;1.25;;;;;;;4.39;44.25;101382.75;4990776;28;20125;-69
2021/01/14 03:51:33;;;;;;;2.75;1.00;;;;;;;4.39;44.08;101388.16;4989215;28;20066;-69
2021/01/14 03:54:00;;;;;;;3.03;1.10;;;;;;;4.39;44.36;101390.88;4991547;28;20122;-69
2021/01/14 03:56:28;;;;;;;5.07;1.25;;;;;;;4.40;44.31;101399.88;4992310;28;20054;-69
2021/01/14 03:58:55;;;;;;;3.80;0.90;;;;;;;4.41;44.14;101401.63;4986633;28;20110;-69
2021/01/14 04:01:22;;;;;;;3.75;1.27;;;;;;;4.40;44.29;101398.03;4987532;28;20368;-69
2021/01/14 04:03:50;;;;;;;2.10;1.05;;;;;;;4.41;44.22;101397.09;4992209;28;20046;-69
2021/01/14 04:06:17;;;;;;;5.60;1.27;;;;;;;4.41;44.32;101388.97;4989820;28;20042;-69
2021/01/14 04:08:45;;;;;;;4.93;1.10;;;;;;;4.42;44.22;101390.72;4990118;28;20046;-69
2021/01/14 04:11:12;;;;;;;4.78;1.15;;;;;;;4.41;44.26;101393.50;4989318;28;20042;-69
2021/01/14 04:14:00;;;;;;;4.60;1.70;;;;;;;4.40;44.42;101395.34;4987872;28;20101;-68
2021/01/14 04:16:50;;;;;;;3.88;1.30;;;;;;;4.41;43.80;101398.91;4989932;28;20137;-68
2021/01/14 04:19:18;;;;;;;3.78;1.05;;;;;;;4.40;44.01;101402.59;4989307;28;20137;-68
2021/01/14 04:22:05;;;;;;;3.00;1.00;;;;;;;4.40;44.14;101402.59;4988144;28;20186;-69
2021/01/14 04:24:39;;;;;;;3.72;1.05;;;;;;;4.38;43.90;101397.22;4989152;28;20043;-69
2021/01/14 04:27:07;;;;;;;4.80;1.40;;;;;;;4.39;44.17;101398.13;4992781;28;20042;-68
2021/01/14 04:29:34;;;;;;;3.17;1.02;;;;;;;4.39;43.78;101390.00;4991355;28;20104;-69
2021/01/14 04:32:02;;;;;;;4.85;1.27;;;;;;;4.39;43.96;101398.13;4993780;28;20158;-68
2021/01/14 04:34:30;;;;;;;4.28;1.10;;;;;;;4.37;43.74;101392.78;4993210;28;20478;-68
2021/01/14 04:36:58;;;;;;;4.07;1.25;;;;;;;4.37;44.09;101387.34;4994247;28;20097;-68
2021/01/14 04:39:26;;;;;;;5.40;1.30;;;;;;;4.35;44.13;101386.59;4987499;28;20038;-67
2021/01/14 04:41:57;;;;;;;3.22;1.23;;;;;;;4.36;43.84;101387.44;4991149;28;20050;-69
2021/01/14 04:44:25;;;;;;;3.15;1.00;;;;;;;4.34;44.26;101383.94;4988757;28;20046;-69
2021/01/14 04:47:07;;;;;;;3.58;1.10;;;;;;;4.36;43.08;101377.47;4990373;28;20046;-68
2021/01/14 04:49:35;;;;;;;5.80;1.00;;;;;;;4.32;44.12;101388.56;4989645;28;20048;-69
2021/01/14 04:52:04;;;;;;;3.40;1.10;;;;;;;4.32;43.79;101384.03;4989933;28;20044;-69
2021/01/14 04:54:34;;;;;;;3.80;1.10;;;;;;;4.33;44.11;101393.91;4990227;28;20474;-69
2021/01/14 04:57:17;;;;;;;5.95;1.45;;;;;;;4.34;43.65;101392.94;4991006;28;20515;-69
2021/01/14 04:59:50;;;;;;;3.67;1.23;;;;;;;4.30;43.94;101385.03;4992680;28;20363;-68
2021/01/14 05:02:24;;;;;;;4.05;1.10;;;;;;;4.31;43.54;101400.34;4990923;28;20038;-69
2021/01/14 05:04:53;;;;;;;4.18;1.10;;;;;;;4.30;43.91;101396.75;4991711;28;20042;-69
2021/01/14 05:07:30;;;;;;;2.22;0.80;;;;;;;4.33;43.22;101402.03;4987529;28;20069;-69
2021/01/14 05:10:02;;;;;;;2.17;0.93;;;;;;;4.30;43.85;101399.47;4989886;28;20060;-69
2021/01/14 05:12:33;;;;;;;3.13;1.10;;;;;;;4.30;43.69;101401.28;4987274;28;20508;-69
2021/01/14 05:15:03;;;;;;;3.42;0.90;;;;;;;4.27;44.01;101405.06;4986422;28;20120;-69
2021/01/14 05:17:32;;;;;;;3.10;1.10;;;;;;;4.28;44.08;101400.50;4989271;28;20242;-69
2021/01/14 05:20:04;;;;;;;3.70;1.00;;;;;;;4.26;43.87;101410.56;4987437;28;20402;-69
2021/01/14 05:22:32;;;;;;;2.65;0.90;;;;;;;4.27;43.97;101410.47;4986248;28;20038;-69
2021/01/14 05:25:07;;;;;;;1.67;0.98;;;;;;;4.30;43.48;101406.72;4990641;28;20054;-69
2021/01/14 05:27:36;;;;;;;2.50;0.90;;;;;;;4.26;43.72;101403.31;4986999;28;20544;-69
2021/01/14 05:30:06;;;;;;;2.38;1.10;;;;;;;4.26;43.76;101406.00;4991958;28;20068;-69
2021/01/14 05:32:37;;;;;;;2.58;0.98;;;;;;;4.25;44.14;101404.25;4987394;28;20046;-69
2021/01/14 05:35:06;;;;;;;4.18;0.88;;;;;;;4.24;43.87;101410.63;4990066;28;20061;-69
2021/01/14 05:37:41;;;;;;;3.70;0.90;;;;;;;4.24;43.29;101410.63;5003230;28;20501;-69
2021/01/14 05:40:10;;;;;;;4.22;1.35;;;;;;;4.23;43.96;101405.28;4985681;28;20501;-69
2021/01/14 05:42:39;;;;;;;2.47;0.95;;;;;;;4.22;43.62;101406.22;4988011;28;20042;-69
2021/01/14 05:45:22;;;;;;;3.97;1.00;;;;;;;4.22;43.11;101408.94;4989731;28;20034;-69
2021/01/14 05:48:06;;;;;;;6.00;1.17;;;;;;;4.17;43.93;101422.72;4987097;28;20037;-69
2021/01/14 05:50:45;;;;;;;4.30;1.05;;;;;;;4.19;43.58;101419.94;4989660;28;20093;-69
2021/01/14 05:53:16;;;;;;;2.30;1.00;;;;;;;4.18;43.93;101423.59;5007184;28;20458;-69
2021/01/14 05:55:45;;;;;;;3.55;1.30;;;;;;;4.17;43.65;101419.13;5006127;28;20046;-69
2021/01/14 05:58:20;;;;;;;3.05;1.20;;;;;;;4.18;43.13;101421.78;4987704;28;20478;-69
2021/01/14 06:00:49;;;;;;;2.85;1.00;;;;;;;4.15;43.78;101430.03;4989841;28;20125;-69
2021/01/14 06:03:27;;;;;;;2.78;0.90;;;;;;;4.17;43.14;101427.25;4989160;28;20042;-70
2021/01/14 06:05:55;;;;;;;4.55;1.00;;;;;;;4.14;44.14;101430.13;4993714;28;20478;-69
2021/01/14 06:08:25;;;;;;;3.45;0.90;;;;;;;4.13;43.95;101436.47;4982807;28;20069;-70
2021/01/14 06:10:53;;;;;;;3.70;1.10;;;;;;;4.13;44.16;101439.19;4986712;28;20065;-70
2021/01/14 06:13:38;;;;;;;3.40;1.17;;;;;;;4.13;42.94;101439.19;4988408;28;20069;-69
2021/01/14 06:16:07;;;;;;;3.30;1.27;;;;;;;4.10;44.05;101442.06;4986219;28;20050;-69
2021/01/14 06:18:34;;;;;;;2.85;1.05;;;;;;;4.10;43.79;101448.38;4985007;28;20129;-69
2021/01/14 06:21:02;;;;;;;4.45;1.67;;;;;;;4.10;43.77;101452.91;4991004;28;20073;-69
2021/01/14 06:23:44;;;;;;;3.20;1.10;;;;;;;4.11;43.52;101463.66;4989891;28;20047;-69
2021/01/14 06:26:12;;;;;;;5.03;1.65;;;;;;;4.06;43.92;101461.16;4991358;28;20486;-70
2021/01/14 06:28:40;;;;;;;3.45;1.20;;;;;;;4.08;43.96;101463.81;4987804;28;20030;-69
2021/01/14 06:31:08;;;;;;;4.55;1.00;;;;;;;4.07;43.86;101471.03;4991674;28;20050;-69
2021/01/14 06:33:36;;;;;;;4.55;1.10;;;;;;;4.07;43.92;101476.47;4988769;28;21443;-69
2021/01/14 06:36:07;;;;;;;2.00;0.90;;;;;;;4.06;43.43;101479.22;4987564;28;20043;-69
2021/01/14 06:38:43;;;;;;;3.25;1.02;;;;;;;4.07;43.60;101476.47;4995355;28;20046;-70
2021/01/14 06:41:15;;;;;;;4.13;1.20;;;;;;;4.05;43.44;101477.47;4990824;28;20101;-70
2021/01/14 06:43:45;;;;;;;3.83;1.02;;;;;;;4.05;43.83;101477.47;4988648;28;20386;-70
2021/01/14 06:46:18;;;;;;;5.63;1.13;;;;;;;4.05;43.62;101483.78;4992235;28;20040;-69
2021/01/14 06:48:49;;;;;;;2.85;1.10;;;;;;;4.03;43.69;101487.50;4995422;28;20062;-70
2021/01/14 06:51:23;;;;;;;3.58;1.10;;;;;;;4.04;43.59;101491.97;4989981;28;20132;-69
2021/01/14 06:53:57;;;;;;;5.65;1.55;;;;;;;4.01;43.90;101493.00;4987899;28;20049;-70
2021/01/14 06:56:34;;;;;;;4.88;1.30;;;;;;;4.00;43.30;101485.84;4994180;28;20049;-69
2021/01/14 06:59:07;;;;;;;4.45;1.15;;;;;;;4.00;43.50;101501.19;4990943;28;20050;-69
2021/01/14 07:01:45;;;;;;;5.15;1.17;;;;;;;3.97;43.47;101494.09;4993373;28;20038;-69
2021/01/14 07:04:32;;;;;;;3.40;1.13;;;;;;;3.96;43.12;101494.16;4993822;28;20501;-69
2021/01/14 07:07:27;;;;;;;5.10;1.15;;;;;;;3.95;43.38;101490.56;4991285;28;20397;-69
2021/01/14 07:10:04;;;;;;;2.05;1.00;;;;;;;3.94;43.25;101494.25;4988484;28;20125;-69
2021/01/14 07:12:34;;;;;;;3.65;1.13;;;;;;;3.92;43.70;101495.28;4993375;28;20047;-70
2021/01/14 07:15:06;;;;;;;2.85;1.02;;;;;;;3.94;43.66;101498.81;4991331;28;20047;-70
2021/01/14 07:17:36;;;;;;;2.72;1.00;;;;;;;3.90;43.98;101498.06;4993073;28;20082;-69
2021/01/14 07:20:08;;;;;;;4.22;1.20;;;;;;;3.91;43.81;101493.53;4989843;28;20031;-69
2021/01/14 07:22:44;;;;;;;3.80;0.90;;;;;;;3.92;43.79;101495.28;5007078;28;20046;-70
2021/01/14 07:25:13;;;;;;;4.40;1.10;;;;;;;3.90;43.95;101492.66;4994311;28;20050;-69
2021/01/14 07:27:43;;;;;;;4.53;1.17;;;;;;;3.91;43.82;101502.53;4995151;28;20042;-69
2021/01/14 07:30:17;;;;;;;2.95;1.20;;;;;;;3.90;43.41;101511.59;4993291;28;20046;-69
2021/01/14 07:32:55;;;;;;;4.13;1.52;;;;;;;3.92;43.22;101507.00;4995207;28;20046;-69
2021/01/14 07:35:40;;;;;;;3.58;1.35;;;;;;;3.92;43.21;101506.09;4994588;28;20077;-70
2021/01/14 07:38:12;;;;;;;2.38;1.02;;;;;;;3.89;43.70;101511.66;4985807;28;20470;-70
2021/01/14 07:40:58;;;;;;;4.05;1.10;;;;;;;3.88;43.83;101515.31;4985934;28;20038;-69
2021/01/14 07:43:32;;;;;;;3.03;1.20;;;;;;;3.90;43.58;101525.13;4989124;28;20121;-69
2021/01/14 07:46:21;;;;;;;3.28;1.00;;;;;;;3.88;43.28;101524.31;4990644;28;20501;-70
2021/01/14 07:48:51;;;;;;;3.72;1.50;;;;;;;3.85;43.56;101532.59;4991878;28;20133;-69
2021/01/14 07:51:19;;;;;;;4.97;1.30;;;;;;;3.86;43.88;101536.19;4993969;28;20054;-69
2021/01/14 07:54:24;;;;;;;3.58;1.08;;;;;;;3.86;43.24;101528.06;4995199;28;20034;-69
2021/01/14 07:56:52;;;;;;;3.72;1.27;;;;;;;3.83;44.18;101536.31;4990723;28;20073;-70
2021/01/14 07:59:29;;;;;;;5.82;1.50;;;;;;;3.86;43.45;101533.47;4989572;28;20061;-70
2021/01/14 08:02:01;;;;;;;4.55;1.38;;;;;;;3.83;43.24;101544.44;4989038;28;20041;-70
2021/01/14 08:04:29;;;;;;;5.13;1.48;;;;;;;3.80;43.86;101548.16;4990969;28;20129;-69
2021/01/14 08:06:56;;;;;;;2.75;1.50;;;;;;;3.81;43.73;101549.03;4994732;28;20049;-69
2021/01/14 08:09:24;;;;;;;5.72;1.58;;;;;;;3.81;43.73;101557.16;4993054;28;20053;-70
2021/01/14 08:11:58;;;;;;;4.20;1.30;;;;;;;3.81;42.93;101554.44;4994028;28;20034;-69
2021/01/14 08:15:11;;;;;;;2.97;1.30;;;;;;;3.77;43.10;101553.72;4989467;28;20097;-69
2021/01/14 08:17:40;;;;;;;4.82;1.27;;;;;;;3.70;44.00;101558.53;5008237;28;20038;-69
2021/01/14 08:20:19;;;;;;;5.32;1.35;;;;;;;3.74;43.40;101563.81;4991788;28;20093;-70
2021/01/14 08:22:46;;;;;;;3.45;1.00;;;;;;;3.70;44.00;101565.75;4992852;28;20097;-70
2021/01/14 08:25:16;;;;;;;3.47;1.35;;;;;;;3.71;43.89;101564.81;4988384;28;20066;-69
2021/01/14 08:27:43;;;;;;;4.15;1.65;;;;;;;3.70;44.13;101563.06;5003883;28;20056;-69
2021/01/14 08:30:15;;;;;;;2.78;1.27;;;;;;;3.74;44.10;101563.81;4989873;28;20320;-69
2021/01/14 08:32:45;;;;;;;4.80;1.38;;;;;;;3.73;44.20;101552.09;4984235;28;20070;-71
2021/01/14 08:35:24;;;;;;;3.05;1.38;;;;;;;3.75;43.54;101561.03;4988202;28;20128;-70
2021/01/14 08:37:53;;;;;;;5.25;2.10;;;;;;;3.75;44.00;101555.63;4992077;28;20038;-70
2021/01/14 08:40:27;;;;;;;5.03;1.25;;;;;;;3.78;43.62;101568.16;5002987;28;20035;-69
2021/01/14 08:43:06;;;;;;;3.65;1.35;;;;;;;3.79;43.61;101567.16;4992064;28;20046;-69
2021/01/14 08:45:35;;;;;;;3.00;1.35;;;;;;;3.77;43.98;101569.97;4984140;28;20120;-69
2021/01/14 08:48:06;;;;;;;5.15;1.63;;;;;;;3.79;43.47;101569.88;4989104;28;20038;-69
2021/01/14 08:50:48;;;;;;;5.13;2.20;;;;;;;3.78;42.96;101568.16;4990189;28;20054;-69
2021/01/14 08:53:34;;;;;;;6.80;2.20;;;;;;;3.76;42.85;101573.63;4982439;28;20042;-69
2021/01/14 08:56:03;;;;;;;4.97;1.50;;;;;;;3.74;43.61;101580.94;4990066;28;20038;-69
2021/01/14 08:58:39;;;;;;;4.63;1.60;;;;;;;3.76;43.75;101580.84;4990553;28;20557;-67
2021/01/14 09:01:09;;;;;;;4.57;1.70;;;;;;;3.73;43.63;101579.16;4988155;28;20109;-67
2021/01/14 09:03:40;;;;;;;6.05;1.70;;;;;;;3.73;43.70;101583.69;4989949;28;20049;-68
2021/01/14 09:06:09;;;;;;;3.88;1.48;;;;;;;3.69;43.89;101600.09;4991984;28;20393;-69
2021/01/14 09:08:37;;;;;;;3.88;1.52;;;;;;;3.70;43.79;101598.22;4986801;28;20097;-69
2021/01/14 09:11:04;;;;;;;3.33;1.48;;;;;;;3.70;43.92;101601.81;4986918;28;20039;-68
2021/01/14 09:13:33;;;;;;;4.50;2.05;;;;;;;3.72;43.76;101604.47;4991608;28;20040;-68
2021/01/14 09:16:08;;;;;;;5.10;1.48;;;;;;;3.74;43.39;101612.53;4998238;28;20074;-69
2021/01/14 09:18:39;;;;;;;3.83;1.30;;;;;;;3.73;43.85;101622.47;4991004;28;20615;-69
2021/01/14 09:21:07;;;;;;;5.30;1.90;;;;;;;3.72;43.86;101623.41;4987238;28;20048;-68
2021/01/14 09:23:35;;;;;;;5.70;1.88;;;;;;;3.71;43.91;101621.63;4991132;28;20049;-69
2021/01/14 09:26:11;;;;;;;5.05;1.90;;;;;;;3.71;43.33;101624.34;4983633;28;20073;-69
2021/01/14 09:28:40;;;;;;;7.28;1.80;;;;;;;3.69;43.54;101631.69;5003466;28;20092;-70
2021/01/14 09:31:09;;;;;;;7.00;1.50;;;;;;;3.69;43.34;101642.50;4991498;28;20062;-69
2021/01/14 09:33:39;;;;;;;4.85;1.70;;;;;;;3.68;43.61;101638.03;4988977;28;20050;-69
2021/01/14 09:36:09;;;;;;;6.70;1.80;;;;;;;3.68;43.73;101644.34;4990745;28;20524;-69
2021/01/14 09:38:46;;;;;;;4.55;1.73;;;;;;;3.69;42.93;101637.09;4988899;28;20046;-70
2021/01/14 09:41:26;;;;;;;4.70;1.67;;;;;;;3.67;43.52;101638.97;4992718;28;20039;-70
2021/01/14 09:43:58;;;;;;;7.72;1.90;;;;;;;3.67;42.97;101639.88;4987315;28;20038;-70
2021/01/14 09:46:28;;;;;;;5.00;2.00;;;;;;;3.65;43.92;101640.88;5004869;28;20038;-69
2021/01/14 09:48:59;;;;;;;5.10;1.73;;;;;;;3.65;43.32;101644.47;4991736;28;20042;-69
2021/01/14 09:51:27;;;;;;;4.28;1.80;;;;;;;3.65;43.48;101649.00;4985505;28;21827;-70
2021/01/14 09:53:55;;;;;;;4.93;1.90;;;;;;;3.65;43.58;101649.00;4983689;28;20141;-70
2021/01/14 09:56:31;;;;;;;4.60;2.20;;;;;;;3.67;42.76;101647.97;4990934;28;20560;-69
2021/01/14 09:59:04;;;;;;;4.97;2.28;;;;;;;3.65;42.98;101649.00;4989354;28;20049;-69
2021/01/14 10:01:37;;;;;;;3.88;1.98;;;;;;;3.63;43.23;101645.47;4988952;28;20438;-69
2021/01/14 10:04:09;;;;;;;4.35;1.92;;;;;;;3.64;43.25;101644.53;4987319;28;20358;-69
2021/01/14 10:06:43;;;;;;;4.65;2.17;;;;;;;3.64;42.97;101647.22;4990353;28;20050;-69
2021/01/14 10:09:11;;;;;;;4.50;2.45;;;;;;;3.62;43.47;101658.09;4983946;28;20117;-69
2021/01/14 10:11:39;;;;;;;5.22;3.17;;;;;;;3.59;43.20;101654.66;4994348;28;20045;-69
2021/01/14 10:14:06;;;;;;;5.70;2.30;;;;;;;3.60;43.20;101660.00;4987659;28;20046;-69
2021/01/14 10:16:33;;;;;;;5.38;3.08;;;;;;;3.57;43.07;101648.41;4995783;28;20097;-68
2021/01/14 10:19:15;;;;;;;3.88;2.70;;;;;;;3.59;42.20;101643.81;5008243;28;20043;-68
2021/01/14 10:21:43;;;;;;;5.30;2.75;;;;;;;3.54;42.75;101643.13;4988867;28;20046;-69
2021/01/14 10:24:22;;;;;;;5.13;2.83;;;;;;;3.55;41.96;101642.19;4996576;28;20054;-68
2021/01/14 10:26:49;;;;;;;5.65;2.85;;;;;;;3.50;43.24;101645.13;4991571;28;20047;-68
2021/01/14 10:29:36;;;;;;;6.20;2.65;;;;;;;3.52;42.40;101640.53;4995044;28;20053;-68
2021/01/14 10:32:06;;;;;;;5.13;3.10;;;;;;;3.48;43.14;101636.19;4991447;28;20043;-69
2021/01/14 10:34:56;;;;;;;5.63;2.75;;;;;;;3.49;42.21;101637.06;4986870;28;20482;-68
2021/01/14 10:37:26;;;;;;;4.63;2.42;;;;;;;3.46;42.71;101640.78;4986848;28;20062;-69
2021/01/14 10:39:55;;;;;;;5.82;2.85;;;;;;;3.49;42.93;101650.59;4992519;28;20077;-70
2021/01/14 10:42:28;;;;;;;4.47;2.90;;;;;;;3.51;42.52;101641.47;4993674;28;20052;-70
2021/01/14 10:44:56;;;;;;;4.97;2.70;;;;;;;3.47;43.20;101637.13;4993352;28;20038;-70
2021/01/14 10:47:24;;;;;;;6.32;2.95;;;;;;;3.51;43.35;101637.88;5009438;28;20096;-70
2021/01/14 10:49:52;;;;;;;4.90;3.08;;;;;;;3.50;42.75;101637.00;5009508;28;20046;-69
2021/01/14 10:52:20;;;;;;;5.70;3.33;;;;;;;3.54;43.14;101633.19;4994685;28;20042;-69
2021/01/14 10:54:58;;;;;;;5.22;2.83;;;;;;;3.57;42.39;101632.19;4994021;28;20104;-69
2021/01/14 10:57:50;;;;;;;5.32;3.17;;;;;;;3.55;41.88;101625.97;4994357;28;20043;-69
2021/01/14 11:00:19;;;;;;;5.00;3.20;;;;;;;3.54;43.12;101622.38;4990178;28;20085;-69
2021/01/14 11:02:47;;;;;;;6.55;3.70;;;;;;;3.57;43.20;101618.66;4991121;28;20092;-68
2021/01/14 11:05:15;;;;;;;4.75;3.30;;;;;;;3.59;42.99;101619.47;4984427;28;20039;-69
2021/01/14 11:07:43;;;;;;;8.77;4.65;;;;;;;3.62;43.00;101619.34;4988219;28;20497;-68
2021/01/14 11:10:12;;;;;;;5.45;3.38;;;;;;;3.63;42.94;101618.41;4984805;28;20509;-68
2021/01/14 11:13:04;;;;;;;6.28;3.28;;;;;;;3.64;42.16;101618.34;4987189;28;20428;-68
2021/01/14 11:15:32;;;;;;;5.78;3.28;;;;;;;3.63;42.97;101613.00;4988634;28;20409;-68
2021/01/14 11:18:00;;;;;;;5.00;2.83;;;;;;;3.67;43.25;101623.63;5005592;28;20049;-69
2021/01/14 11:20:28;;;;;;;6.35;3.40;;;;;;;3.69;42.98;101616.31;4986604;28;20042;-69
2021/01/14 11:22:57;;;;;;;6.15;3.55;;;;;;;3.73;43.00;101608.94;5005922;28;20053;-68
2021/01/14 11:25:24;;;;;;;4.60;3.30;;;;;;;3.74;42.73;101613.41;5004011;28;20064;-69
2021/01/14 11:27:53;;;;;;;5.07;3.20;;;;;;;3.76;42.93;101599.81;4994188;28;20085;-68
2021/01/14 11:30:21;;;;;;;6.20;3.13;;;;;;;3.77;42.73;101605.16;4992820;28;20089;-70
2021/01/14 11:32:49;;;;;;;4.95;2.97;;;;;;;3.79;42.94;101599.63;5008844;28;20042;-69
2021/01/14 11:35:17;;;;;;;5.55;3.05;;;;;;;3.80;42.97;101593.28;4994451;28;20425;-69
2021/01/14 11:37:45;;;;;;;5.75;3.35;;;;;;;3.81;42.97;101593.22;4991997;28;20366;-69
2021/01/14 11:40:14;;;;;;;4.10;2.88;;;;;;;3.83;42.54;101591.31;4992193;28;20125;-69
2021/01/14 11:42:41;;;;;;;5.13;2.70;;;;;;;3.83;42.66;101585.91;4994104;28;20501;-69
2021/01/14 11:45:09;;;;;;;4.38;2.80;;;;;;;3.86;42.72;101584.91;4983500;28;20053;-69
2021/01/14 11:47:37;;;;;;;5.00;2.40;;;;;;;3.86;42.58;101580.38;4993338;28;20088;-69
2021/01/14 11:50:06;;;;;;;4.20;2.10;;;;;;;3.89;42.70;101582.03;4992433;28;20042;-69
2021/01/14 11:52:33;;;;;;;6.90;2.67;;;;;;;3.89;42.53;101582.03;4993875;28;20125;-70
2021/01/14 11:55:01;;;;;;;3.90;2.45;;;;;;;3.90;42.77;101578.38;4997909;28;20046;-70
2021/01/14 11:57:33;;;;;;;4.18;2.38;;;;;;;3.93;42.69;101576.41;4995756;28;20042;-70